TAF LEBB
AMD LEBB 090931Z 0909/1006 27011KT 9999 SCT010 BKN020 TX11/0918Z TN08/0909Z TEMPO 0909/0911 VRB05KT TEMPO 0909/1006 3000 RA BKN010 TEMPO 0911/1006 27016G33KT PROB40 TEMPO 0913/0920 27023G43KT=
METAR LEBB
LEBB 091000Z VRB02KT 3000 RA FEW011 OVC017 08/08 Q1015 BECMG 28012KT=
LEBB 090930Z VRB03KT 3000 RA FEW016 OVC020 08/07 Q1015 BECMG 28012KT=
LEBB 090900Z VRB03KT 3000 RA FEW013 OVC020 08/07 Q1015 TEMPO SHRA SCT030TCU=
LEBB 090830Z VRB02KT 3000 RA OVC018 08/08 Q1016 TEMPO SHRA SCT030TCU=
LEBB 090800Z VRB02KT 3000 RA FEW018 BKN022 OVC030 08/08 Q1016 TEMPO SHRA SCT030TCU=
WC LEBB
WS LEBB
WV LEBB